Time;durP1;ratioP1;P1;durP2;ratioP2;P2;SDS_P1;SDS_P2;PMS_P1;PMS_P2;Temp;Humidity;BMP_temperature;BMP_pressure;BME280_temperature;BME280_humidity;BME280_pressure;Samples;Min_cycle;Max_cycle;Signal;HPM_P1;HPM_P2
2022/04/28 00:00:47;;;;;;;13.38;8.77;;;7.20;93.20;;;;;;4998697;28;91659;-70
2022/04/28 00:03:14;;;;;;;12.65;8.07;;;7.20;93.00;;;;;;4998288;28;93234;-70
2022/04/28 00:05:42;;;;;;;10.35;7.38;;;7.20;93.10;;;;;;4998148;28;93075;-70
2022/04/28 00:08:09;;;;;;;11.23;6.70;;;7.10;93.10;;;;;;4997277;28;94730;-70
2022/04/28 00:10:37;;;;;;;10.90;7.13;;;7.10;92.90;;;;;;4998200;28;92474;-70
2022/04/28 00:13:06;;;;;;;13.05;6.88;;;7.00;92.60;;;;;;4998004;28;93381;-70
2022/04/28 00:15:34;;;;;;;10.73;6.68;;;7.00;92.60;;;;;;4997780;28;93121;-70
2022/04/28 00:18:01;;;;;;;11.93;7.80;;;7.00;92.50;;;;;;4998383;28;92386;-70
2022/04/28 00:20:28;;;;;;;12.20;7.03;;;7.00;92.50;;;;;;4995843;28;92552;-70
2022/04/28 00:22:55;;;;;;;12.93;7.05;;;6.90;92.50;;;;;;5013202;28;93077;-70
2022/04/28 00:25:23;;;;;;;14.32;7.50;;;6.90;92.40;;;;;;4998285;28;93317;-70
2022/04/28 00:27:51;;;;;;;12.55;7.57;;;6.90;92.50;;;;;;4998086;28;92478;-70
2022/04/28 00:30:18;;;;;;;11.65;7.70;;;6.80;92.60;;;;;;4996665;28;92616;-70
2022/04/28 00:32:45;;;;;;;13.65;7.43;;;6.90;92.60;;;;;;4996162;28;106178;-70
2022/04/28 00:35:12;;;;;;;8.85;6.97;;;6.90;92.60;;;;;;5012856;28;96952;-70
2022/04/28 00:37:40;;;;;;;17.08;8.30;;;6.80;92.50;;;;;;4996211;28;92503;-70
2022/04/28 00:40:08;;;;;;;14.55;8.30;;;6.90;92.50;;;;;;4996371;28;92520;-70
2022/04/28 00:42:35;;;;;;;11.63;7.68;;;6.90;92.50;;;;;;4995640;28;95735;-70
2022/04/28 00:45:02;;;;;;;11.77;7.72;;;6.90;92.40;;;;;;5029651;27;93057;-70
2022/04/28 00:53:02;;;;;;;16.58;7.82;;;7.00;92.40;;;;;;4996087;28;98199;-70
2022/04/28 00:55:30;;;;;;;9.70;7.47;;;7.00;92.30;;;;;;4996958;28;93148;-70
2022/04/28 00:57:58;;;;;;;10.52;7.47;;;7.00;92.30;;;;;;4995232;28;95369;-70
2022/04/28 01:00:26;;;;;;;11.30;7.65;;;7.00;92.40;;;;;;4996099;28;92483;-70
2022/04/28 01:02:54;;;;;;;15.60;8.43;;;7.00;92.30;;;;;;5012518;28;95424;-70
2022/04/28 01:05:21;;;;;;;10.50;6.80;;;7.00;92.40;;;;;;5011911;28;95510;-70
2022/04/28 01:07:48;;;;;;;10.35;7.65;;;7.00;92.50;;;;;;4995757;28;92546;-70
2022/04/28 01:10:16;;;;;;;11.73;7.93;;;7.00;92.50;;;;;;4995975;28;92563;-70
2022/04/28 01:12:43;;;;;;;12.13;8.20;;;7.00;92.60;;;;;;5012243;28;95738;-70
2022/04/28 01:15:11;;;;;;;12.90;8.15;;;7.00;92.60;;;;;;4995931;28;95344;-70
2022/04/28 01:17:39;;;;;;;16.25;8.63;;;7.10;92.70;;;;;;5011996;28;92888;-70
2022/04/28 01:20:07;;;;;;;14.27;7.75;;;7.10;92.70;;;;;;5028978;28;92487;-70
2022/04/28 01:22:36;;;;;;;11.57;8.52;;;7.20;92.80;;;;;;4994263;28;97650;-70
2022/04/28 01:25:08;;;;;;;12.13;7.90;;;7.20;92.80;;;;;;4979540;28;98271;-70
2022/04/28 01:27:37;;;;;;;10.48;7.63;;;7.30;92.70;;;;;;4995634;28;92541;-70
2022/04/28 01:30:11;;;;;;;11.75;7.30;;;7.30;92.70;;;;;;5028739;28;92439;-70
2022/04/28 01:32:40;;;;;;;15.38;7.88;;;7.40;92.70;;;;;;5011650;28;95139;-70
2022/04/28 01:35:07;;;;;;;12.50;8.50;;;7.30;92.60;;;;;;5011825;28;95265;-70
2022/04/28 01:37:34;;;;;;;12.82;8.48;;;7.30;92.50;;;;;;5011804;28;92559;-70
2022/04/28 01:40:08;;;;;;;10.23;8.05;;;7.30;92.50;;;;;;4979719;28;91813;-70
2022/04/28 01:42:36;;;;;;;12.80;9.10;;;7.40;92.80;;;;;;4995058;28;94985;-70
2022/04/28 01:45:06;;;;;;;12.23;9.35;;;7.40;92.50;;;;;;4995362;28;95331;-70
2022/04/28 01:47:35;;;;;;;11.85;8.90;;;7.40;92.40;;;;;;5009881;28;94856;-70
2022/04/28 01:50:21;;;;;;;12.90;8.60;;;7.50;92.40;;;;;;4995693;28;92446;-70
2022/04/28 01:56:01;;;;;;;13.27;8.73;;;7.50;92.30;;;;;;4995021;28;95039;-70
2022/04/28 01:58:54;;;;;;;11.32;9.07;;;7.60;92.30;;;;;;4993088;28;92466;-70
2022/04/28 02:01:36;;;;;;;13.00;9.65;;;7.60;92.20;;;;;;5013531;28;92474;-70
2022/04/28 02:04:03;;;;;;;11.77;9.77;;;7.70;92.20;;;;;;5028780;28;95504;-70
2022/04/28 02:06:31;;;;;;;14.90;9.90;;;7.70;92.10;;;;;;4995248;28;94357;-70
2022/04/28 02:08:59;;;;;;;14.80;9.98;;;7.70;92.20;;;;;;5011248;28;92439;-70
2022/04/28 02:11:27;;;;;;;13.80;9.90;;;7.80;92.20;;;;;;4994285;28;92492;-70
2022/04/28 02:14:28;;;;;;;13.05;10.05;;;7.80;92.20;;;;;;4949767;28;95431;-70
2022/04/28 02:17:27;;;;;;;15.05;9.45;;;7.80;92.30;;;;;;4993963;28;96311;-70
2022/04/28 02:19:54;;;;;;;14.48;9.80;;;7.90;92.30;;;;;;4993951;28;92820;-70
2022/04/28 02:22:21;;;;;;;16.00;9.52;;;7.90;92.40;;;;;;4994582;28;92524;-70
2022/04/28 02:24:50;;;;;;;13.95;9.75;;;8.00;92.40;;;;;;4996169;28;93183;-70
2022/04/28 02:27:18;;;;;;;12.52;9.57;;;8.00;92.40;;;;;;5028192;28;95533;-70
2022/04/28 02:29:45;;;;;;;12.05;9.48;;;8.00;92.40;;;;;;4994558;28;92599;-70
2022/04/28 02:32:13;;;;;;;15.25;9.90;;;8.10;92.30;;;;;;4995154;28;91802;-70
2022/04/28 02:34:40;;;;;;;13.50;8.77;;;8.10;92.30;;;;;;4995403;28;93223;-70
2022/04/28 02:37:08;;;;;;;10.18;8.45;;;8.20;92.20;;;;;;5010838;28;95369;-70
2022/04/28 02:39:35;;;;;;;15.60;8.82;;;8.20;92.20;;;;;;4993549;28;94878;-70
2022/04/28 02:42:02;;;;;;;9.75;8.73;;;8.20;92.10;;;;;;5010782;28;92557;-70
2022/04/28 02:44:29;;;;;;;13.93;9.10;;;8.20;92.10;;;;;;4994442;28;95892;-70
2022/04/28 02:46:56;;;;;;;11.65;8.82;;;8.30;92.10;;;;;;4994164;28;95406;-70
2022/04/28 02:49:26;;;;;;;14.45;10.13;;;8.30;92.10;;;;;;4994370;28;92915;-70
2022/04/28 02:51:54;;;;;;;11.75;9.55;;;8.30;92.10;;;;;;4993583;28;92430;-70
2022/04/28 02:54:22;;;;;;;13.23;8.88;;;8.30;92.20;;;;;;4994211;28;95654;-70
2022/04/28 02:56:49;;;;;;;13.75;8.95;;;8.30;92.10;;;;;;4994477;28;95565;-70
2022/04/28 02:59:16;;;;;;;14.65;9.82;;;8.40;92.10;;;;;;4994491;28;92468;-70
2022/04/28 03:01:43;;;;;;;14.40;9.90;;;8.40;92.00;;;;;;5010852;28;92823;-70
2022/04/28 03:04:10;;;;;;;17.55;10.20;;;8.40;91.90;;;;;;5009115;28;98259;-70
2022/04/28 03:12:10;;;;;;;15.90;9.38;;;8.40;92.00;;;;;;4994230;28;92504;-70
2022/04/28 03:14:41;;;;;;;14.40;9.88;;;8.40;92.10;;;;;;4994029;28;95566;-70
2022/04/28 03:17:08;;;;;;;13.07;10.02;;;8.40;92.00;;;;;;4995287;28;92862;-70
2022/04/28 03:19:35;;;;;;;13.48;9.73;;;8.50;92.00;;;;;;4993358;28;92468;-70
2022/04/28 03:22:02;;;;;;;15.48;9.73;;;8.50;91.90;;;;;;5010576;28;92227;-70
2022/04/28 03:24:29;;;;;;;13.60;9.90;;;8.50;91.80;;;;;;4993802;28;95760;-70
2022/04/28 03:26:57;;;;;;;12.80;8.90;;;8.50;91.60;;;;;;5026995;28;95525;-70
2022/04/28 03:29:23;;;;;;;17.55;10.15;;;8.60;91.60;;;;;;4992730;28;94976;-70
2022/04/28 03:31:50;;;;;;;14.48;9.05;;;8.50;91.50;;;;;;4993202;28;92511;-70
2022/04/28 03:34:27;;;;;;;14.70;10.00;;;8.60;91.50;;;;;;5008993;28;95563;-70
2022/04/28 03:36:54;;;;;;;13.85;9.52;;;8.50;91.50;;;;;;4993263;28;92955;-70
2022/04/28 03:39:33;;;;;;;14.93;9.82;;;8.50;91.50;;;;;;4994028;28;92833;-70
2022/04/28 03:42:00;;;;;;;14.82;10.13;;;8.60;91.60;;;;;;4993550;28;92644;-70
2022/04/28 03:44:27;;;;;;;12.23;9.13;;;8.60;91.70;;;;;;4992964;28;95873;-70
2022/04/28 03:46:54;;;;;;;16.83;9.48;;;8.60;91.60;;;;;;4993857;28;94290;-70
2022/04/28 03:49:21;;;;;;;14.65;9.18;;;8.70;91.60;;;;;;5010352;28;92476;-70
2022/04/28 03:51:49;;;;;;;16.58;9.57;;;8.60;91.60;;;;;;4993525;28;92534;-70
2022/04/28 03:54:16;;;;;;;13.63;9.00;;;8.70;91.60;;;;;;4992175;28;98249;-70
2022/04/28 03:56:44;;;;;;;14.55;9.55;;;8.70;91.50;;;;;;4994732;28;94256;-70
2022/04/28 03:59:11;;;;;;;15.05;9.48;;;8.70;91.40;;;;;;5010060;28;92471;-70
2022/04/28 04:01:57;;;;;;;12.02;9.27;;;8.70;91.40;;;;;;4994190;28;92366;-70
2022/04/28 04:04:25;;;;;;;14.93;9.63;;;8.80;91.40;;;;;;5009732;28;95596;-70
2022/04/28 04:07:03;;;;;;;15.32;10.32;;;8.80;91.40;;;;;;5026532;28;94929;-70
2022/04/28 04:09:53;;;;;;;12.23;9.68;;;8.80;91.40;;;;;;4985233;28;92525;-70
2022/04/28 04:12:28;;;;;;;15.50;9.30;;;8.80;91.40;;;;;;4993943;28;91771;-70
2022/04/28 04:15:10;;;;;;;14.88;9.63;;;8.80;91.40;;;;;;4991915;28;93014;-70
2022/04/28 04:18:03;;;;;;;15.23;9.82;;;8.80;91.40;;;;;;4994133;28;93804;-70
2022/04/28 04:20:42;;;;;;;16.40;10.13;;;8.80;91.70;;;;;;5010191;28;94954;-70
2022/04/28 04:23:09;;;;;;;10.88;8.75;;;8.80;91.50;;;;;;4979543;28;92535;-70
2022/04/28 04:25:36;;;;;;;17.02;9.55;;;8.80;91.50;;;;;;4996527;28;95841;-70
2022/04/28 04:28:08;;;;;;;11.93;10.07;;;8.80;91.40;;;;;;4996366;28;95409;-70
2022/04/28 04:34:11;;;;;;;15.75;9.05;;;8.80;91.50;;;;;;4992300;28;93058;-70
2022/04/28 04:36:39;;;;;;;14.90;9.10;;;8.80;91.50;;;;;;4996156;28;95331;-70
2022/04/28 04:39:07;;;;;;;13.40;10.15;;;8.90;91.40;;;;;;5012777;28;95176;-70
2022/04/28 04:41:38;;;;;;;16.38;10.32;;;8.90;91.50;;;;;;4996069;28;92540;-70
2022/04/28 04:44:12;;;;;;;12.63;9.27;;;9.00;91.50;;;;;;4995297;28;92554;-70
2022/04/28 04:46:42;;;;;;;14.15;9.05;;;9.00;91.40;;;;;;5010295;28;97633;-70
2022/04/28 04:49:24;;;;;;;11.82;8.85;;;9.10;91.30;;;;;;4996481;28;95001;-70
2022/04/28 04:52:13;;;;;;;15.32;9.55;;;9.20;91.30;;;;;;4995918;28;92481;-70
2022/04/28 04:55:00;;;;;;;12.20;9.48;;;9.20;91.40;;;;;;4997614;28;92493;-70
2022/04/28 04:57:31;;;;;;;13.07;9.63;;;9.30;91.60;;;;;;4996126;28;95730;-70
2022/04/28 05:00:00;;;;;;;17.55;10.18;;;9.40;91.60;;;;;;4995690;28;95273;-70
2022/04/28 05:02:29;;;;;;;17.02;10.63;;;9.40;91.70;;;;;;4995688;28;92423;-70
2022/04/28 05:05:32;;;;;;;13.32;9.55;;;9.40;91.60;;;;;;4924326;28;91704;-70
2022/04/28 05:08:21;;;;;;;12.48;9.88;;;9.50;91.50;;;;;;4980169;28;95997;-70
2022/04/28 05:10:59;;;;;;;14.32;10.38;;;9.50;91.50;;;;;;4995560;28;95148;-70
2022/04/28 05:13:27;;;;;;;14.60;10.23;;;9.50;91.50;;;;;;4995417;28;94872;-70
2022/04/28 05:15:56;;;;;;;15.98;11.50;;;9.60;91.60;;;;;;4995041;28;92586;-70
2022/04/28 05:18:35;;;;;;;13.70;9.93;;;9.60;91.50;;;;;;4995154;28;95515;-70
2022/04/28 05:21:34;;;;;;;14.98;9.90;;;9.70;91.60;;;;;;4962610;28;93184;-70
2022/04/28 05:24:13;;;;;;;16.15;10.32;;;9.80;91.50;;;;;;4994852;28;92375;-70
2022/04/28 05:27:12;;;;;;;13.80;9.77;;;9.80;91.40;;;;;;4962230;28;92454;-70
2022/04/28 05:30:02;;;;;;;12.27;9.43;;;9.80;91.40;;;;;;4966177;28;93048;-70
2022/04/28 05:33:08;;;;;;;12.27;8.98;;;9.90;91.30;;;;;;4935744;28;92936;-70
2022/04/28 05:36:00;;;;;;;15.57;9.63;;;9.90;91.20;;;;;;4922549;28;93288;-70
2022/04/28 05:38:29;;;;;;;11.85;9.20;;;10.00;91.10;;;;;;4974663;28;92668;-70
2022/04/28 05:40:57;;;;;;;16.17;9.68;;;10.10;91.10;;;;;;4995315;28;95732;-70
2022/04/28 05:46:12;;;;;;;12.35;9.13;;;10.20;90.90;;;;;;5009262;28;92963;-70
2022/04/28 05:48:39;;;;;;;11.98;8.75;;;10.30;90.80;;;;;;5011811;28;92643;-70
2022/04/28 05:51:11;;;;;;;10.00;8.25;;;10.30;90.70;;;;;;4994906;28;95951;-70
2022/04/28 05:53:41;;;;;;;17.58;9.35;;;10.40;90.30;;;;;;5011676;28;94919;-70
2022/04/28 05:56:08;;;;;;;12.48;8.43;;;10.60;89.80;;;;;;4994988;28;92537;-70
2022/04/28 05:58:47;;;;;;;13.57;8.77;;;10.60;89.60;;;;;;4995504;28;91979;-70
2022/04/28 06:01:32;;;;;;;11.32;8.15;;;10.70;89.30;;;;;;4994393;28;92684;-70
2022/04/28 06:04:05;;;;;;;14.70;8.18;;;10.80;88.90;;;;;;4995013;28;95260;-70
2022/04/28 06:06:39;;;;;;;12.35;8.00;;;11.00;88.20;;;;;;4994184;28;95410;-70
2022/04/28 06:09:17;;;;;;;11.68;8.52;;;11.20;87.80;;;;;;4994761;28;92511;-70
2022/04/28 06:11:44;;;;;;;17.38;9.45;;;11.30;87.50;;;;;;4996123;28;92476;-70
2022/04/28 06:14:11;;;;;;;13.70;9.43;;;11.50;87.30;;;;;;4994357;28;96191;-70
2022/04/28 06:16:57;;;;;;;14.25;9.60;;;11.70;87.00;;;;;;4994197;28;92887;-70
2022/04/28 06:19:26;;;;;;;12.70;8.32;;;11.80;87.20;;;;;;4994268;28;92491;-70
2022/04/28 06:22:05;;;;;;;15.68;8.93;;;12.00;86.70;;;;;;4992395;28;92853;-70
2022/04/28 06:24:44;;;;;;;13.43;9.07;;;12.20;85.80;;;;;;4995007;28;95370;-70
2022/04/28 06:27:13;;;;;;;12.73;7.90;;;12.30;85.50;;;;;;4994721;28;92477;-70
2022/04/28 06:29:48;;;;;;;13.30;6.78;;;12.50;85.00;;;;;;4994730;28;92538;-71
2022/04/28 06:32:16;;;;;;;12.40;7.45;;;12.60;84.60;;;;;;4992957;28;97531;-70
2022/04/28 06:34:55;;;;;;;11.23;7.57;;;12.60;84.50;;;;;;4993739;28;93984;-70
2022/04/28 06:37:28;;;;;;;10.90;8.13;;;12.70;84.70;;;;;;4994349;28;92743;-70
2022/04/28 06:39:59;;;;;;;13.30;7.40;;;12.70;85.00;;;;;;5027705;27;92410;-70
2022/04/28 06:42:27;;;;;;;16.42;7.30;;;12.70;84.90;;;;;;4995755;28;92464;-70
2022/04/28 06:45:13;;;;;;;10.85;7.35;;;12.80;85.00;;;;;;4993308;28;92478;-70
2022/04/28 06:48:06;;;;;;;9.40;6.22;;;13.00;84.90;;;;;;4994592;28;92474;-70
2022/04/28 06:50:38;;;;;;;13.75;6.55;;;13.10;84.80;;;;;;4995581;28;91734;-70
2022/04/28 06:53:25;;;;;;;11.48;5.78;;;13.30;84.40;;;;;;4994187;28;94100;-70
2022/04/28 06:55:58;;;;;;;12.95;6.68;;;13.50;84.00;;;;;;5009960;28;95611;-70
2022/04/28 06:58:28;;;;;;;12.77;5.43;;;13.70;83.60;;;;;;4993033;28;95867;-71
2022/04/28 07:00:59;;;;;;;11.52;5.55;;;13.80;82.40;;;;;;5010429;28;92485;-70
2022/04/28 07:03:27;;;;;;;11.32;4.78;;;13.90;82.80;;;;;;4993645;28;95398;-70
2022/04/28 07:05:56;;;;;;;10.15;4.40;;;13.90;81.90;;;;;;4994007;28;95067;-70
2022/04/28 07:08:23;;;;;;;10.27;4.07;;;13.80;81.30;;;;;;4994040;28;92453;-70
2022/04/28 07:10:50;;;;;;;8.05;4.00;;;13.70;81.70;;;;;;4995736;28;92349;-70
2022/04/28 07:13:17;;;;;;;11.88;4.50;;;13.70;81.80;;;;;;4993663;28;95755;-70
2022/04/28 07:16:22;;;;;;;9.35;4.28;;;13.60;81.20;;;;;;4994679;28;93857;-70
2022/04/28 07:19:21;;;;;;;6.90;3.35;;;13.50;80.70;;;;;;4990947;28;92936;-70
2022/04/28 07:21:50;;;;;;;10.55;3.80;;;13.50;79.80;;;;;;4994107;28;92581;-70
2022/04/28 07:24:18;;;;;;;7.88;3.35;;;13.70;79.60;;;;;;5008558;28;97328;-70
2022/04/28 07:26:46;;;;;;;6.45;3.75;;;14.00;78.10;;;;;;5010071;28;97839;-71
2022/04/28 07:29:13;;;;;;;7.85;3.97;;;14.20;77.60;;;;;;5010488;28;92401;-71
2022/04/28 07:32:12;;;;;;;6.55;3.60;;;14.40;77.40;;;;;;4996064;28;93661;-71
2022/04/28 07:35:03;;;;;;;8.45;4.65;;;14.50;77.30;;;;;;4992727;28;92852;-70
2022/04/28 07:37:48;;;;;;;9.48;4.22;;;14.40;77.00;;;;;;4992550;28;92470;-70
2022/04/28 07:40:36;;;;;;;7.25;3.25;;;14.20;77.40;;;;;;4994258;28;92451;-70
2022/04/28 07:43:09;;;;;;;8.98;3.72;;;14.50;77.20;;;;;;4994197;28;91956;-70
2022/04/28 07:45:38;;;;;;;8.23;3.38;;;14.60;75.90;;;;;;4993294;28;95251;-70
2022/04/28 07:48:16;;;;;;;8.05;3.55;;;14.80;76.10;;;;;;4993738;28;93902;-70
2022/04/28 07:50:44;;;;;;;8.98;2.75;;;14.80;74.80;;;;;;5008642;28;94781;-70
2022/04/28 07:53:22;;;;;;;7.38;2.92;;;14.70;75.50;;;;;;5011115;28;92515;-70
2022/04/28 07:58:37;;;;;;;7.07;3.00;;;14.60;74.70;;;;;;4996579;28;95518;-71
2022/04/28 08:01:24;;;;;;;7.13;3.45;;;14.70;75.30;;;;;;4983702;28;92868;-71
2022/04/28 08:03:52;;;;;;;5.82;2.70;;;15.30;73.40;;;;;;5013321;28;92428;-70
2022/04/28 08:06:19;;;;;;;4.70;1.85;;;15.90;70.40;;;;;;4996666;28;95686;-71
2022/04/28 08:08:46;;;;;;;5.30;2.17;;;16.00;69.00;;;;;;4996942;28;95626;-71
2022/04/28 08:11:14;;;;;;;7.18;2.40;;;16.10;67.50;;;;;;5013410;28;92427;-71
2022/04/28 08:13:41;;;;;;;4.00;1.98;;;16.00;67.50;;;;;;4996518;28;92456;-71
2022/04/28 08:16:16;;;;;;;5.28;2.40;;;15.70;67.70;;;;;;4995233;28;98050;-71
2022/04/28 08:18:45;;;;;;;6.20;3.13;;;15.40;68.80;;;;;;4996256;28;97661;-71
2022/04/28 08:21:21;;;;;;;4.43;2.25;;;15.10;69.40;;;;;;4996531;28;93008;-71
2022/04/28 08:23:49;;;;;;;7.07;2.45;;;15.00;70.00;;;;;;4996355;28;92534;-71
2022/04/28 08:26:17;;;;;;;5.55;2.30;;;15.00;70.10;;;;;;4996689;28;95332;-71
2022/04/28 08:28:45;;;;;;;5.32;2.10;;;14.80;70.20;;;;;;4996276;28;95240;-71
2022/04/28 08:31:13;;;;;;;5.40;2.45;;;14.80;71.00;;;;;;4996648;28;92764;-71
2022/04/28 08:33:45;;;;;;;7.22;2.50;;;14.60;70.90;;;;;;4997082;28;91811;-70
2022/04/28 08:36:14;;;;;;;4.72;2.25;;;14.50;71.70;;;;;;4996298;28;95568;-71
2022/04/28 08:38:43;;;;;;;6.55;3.25;;;14.40;71.30;;;;;;4996052;28;95368;-71
2022/04/28 08:41:13;;;;;;;5.75;2.50;;;14.50;71.00;;;;;;4995331;28;94936;-71
2022/04/28 08:44:19;;;;;;;5.95;2.42;;;14.60;71.40;;;;;;4997289;28;93502;-71
2022/04/28 08:46:53;;;;;;;5.68;2.17;;;14.90;70.00;;;;;;5029457;28;95675;-71
2022/04/28 08:49:29;;;;;;;3.55;2.25;;;15.20;69.70;;;;;;4996073;28;94847;-71
2022/04/28 08:52:25;;;;;;;7.93;2.35;;;15.10;69.90;;;;;;4995227;28;92526;-71
2022/04/28 08:54:59;;;;;;;7.32;2.17;;;15.10;70.30;;;;;;5011779;28;92544;-71
2022/04/28 08:57:27;;;;;;;10.10;3.58;;;15.00;70.30;;;;;;5029430;28;95744;-71
2022/04/28 08:59:55;;;;;;;6.00;3.08;;;14.90;70.80;;;;;;4996251;28;95082;-71
2022/04/28 09:02:29;;;;;;;7.18;2.33;;;14.80;70.60;;;;;;5012263;28;92803;-71
2022/04/28 09:05:20;;;;;;;6.35;2.70;;;14.80;70.70;;;;;;4987683;28;92638;-71
2022/04/28 09:07:47;;;;;;;3.15;2.30;;;14.90;70.70;;;;;;5027827;28;95453;-71
2022/04/28 09:10:49;;;;;;;5.72;2.63;;;15.00;69.20;;;;;;4935102;28;94162;-71
2022/04/28 09:14:09;;;;;;;6.43;2.30;;;15.20;69.40;;;;;;4959014;28;92456;-71
2022/04/28 09:16:45;;;;;;;4.82;2.50;;;15.30;67.90;;;;;;4995677;28;92407;-71
2022/04/28 09:19:19;;;;;;;5.53;2.85;;;15.40;68.70;;;;;;4995445;28;95400;-71
2022/04/28 09:21:47;;;;;;;5.13;2.92;;;15.80;68.00;;;;;;4995632;28;95375;-71
2022/04/28 09:24:14;;;;;;;6.68;3.55;;;15.90;68.00;;;;;;5012591;28;92447;-71
2022/04/28 09:26:43;;;;;;;10.05;3.50;;;16.00;68.10;;;;;;4979505;28;91768;-71
2022/04/28 09:29:14;;;;;;;10.32;3.13;;;15.90;67.50;;;;;;5011977;28;95407;-71
2022/04/28 09:31:46;;;;;;;7.43;2.88;;;16.00;68.20;;;;;;4995385;28;95350;-71
2022/04/28 09:34:55;;;;;;;7.93;2.92;;;16.00;67.70;;;;;;4997340;28;94917;-71
2022/04/28 09:37:48;;;;;;;6.60;3.03;;;16.10;68.20;;;;;;4972355;28;92448;-71
2022/04/28 09:43:03;;;;;;;11.85;4.13;;;16.20;68.00;;;;;;4995351;28;95752;-71
2022/04/28 09:45:51;;;;;;;6.03;3.28;;;16.30;67.80;;;;;;4995206;28;92530;-71
2022/04/28 09:48:19;;;;;;;7.95;2.88;;;16.30;66.90;;;;;;5012001;28;92393;-71
2022/04/28 09:50:51;;;;;;;6.45;4.07;;;16.30;67.20;;;;;;4995027;28;95520;-71
2022/04/28 09:53:22;;;;;;;3.40;2.58;;;16.20;67.10;;;;;;4996911;28;92750;-71
2022/04/28 09:56:16;;;;;;;;;;;16.00;67.30;;;;;;4974687;28;92534;-71
2022/04/28 09:58:51;;;;;;;5.90;2.75;;;15.70;67.60;;;;;;5029878;28;92931;-71
2022/04/28 10:01:19;;;;;;;9.02;3.17;;;15.70;68.20;;;;;;4993824;28;97939;-71
2022/04/28 10:03:47;;;;;;;8.70;3.40;;;15.90;67.70;;;;;;4994731;28;98419;-71
2022/04/28 10:06:19;;;;;;;8.18;3.42;;;16.20;67.60;;;;;;4995231;28;92557;-71
2022/04/28 10:08:56;;;;;;;8.23;2.63;;;16.30;66.70;;;;;;4996111;28;92470;-71
2022/04/28 10:11:24;;;;;;;8.20;3.92;;;16.10;66.90;;;;;;4994901;28;95801;-71
2022/04/28 10:13:55;;;;;;;9.43;3.13;;;16.10;67.40;;;;;;4994644;28;95083;-71
2022/04/28 10:16:24;;;;;;;9.32;3.53;;;16.10;67.40;;;;;;5010459;28;92490;-71
2022/04/28 10:19:08;;;;;;;7.72;3.10;;;16.20;67.00;;;;;;4978659;28;92154;-71
2022/04/28 10:21:41;;;;;;;9.02;3.47;;;16.40;66.90;;;;;;5028472;28;95158;-71
2022/04/28 10:33:06;;;;;;;9.98;4.03;;;16.40;66.20;;;;;;4995860;28;93441;-71
2022/04/28 10:35:37;;;;;;;6.75;3.50;;;16.40;66.60;;;;;;5028054;28;95438;-71
2022/04/28 10:38:11;;;;;;;8.65;4.43;;;16.70;66.50;;;;;;4995515;28;92388;-71
2022/04/28 10:40:39;;;;;;;7.90;3.58;;;16.80;65.70;;;;;;4996275;28;92818;-71
2022/04/28 10:43:24;;;;;;;7.60;3.88;;;16.80;64.90;;;;;;4994307;28;93229;-71
2022/04/28 10:45:54;;;;;;;7.53;4.30;;;16.90;64.40;;;;;;4996153;28;92910;-71
2022/04/28 10:48:42;;;;;;;6.32;3.53;;;16.90;64.90;;;;;;4994735;28;92990;-71
2022/04/28 10:51:15;;;;;;;6.30;3.22;;;17.10;64.40;;;;;;4996034;28;92463;-71
2022/04/28 10:54:23;;;;;;;7.00;3.00;;;17.00;63.90;;;;;;4994277;28;95558;-71
2022/04/28 10:56:56;;;;;;;8.13;3.67;;;17.00;64.40;;;;;;4995574;28;95351;-71
2022/04/28 10:59:29;;;;;;;11.68;5.00;;;16.90;64.80;;;;;;4994319;28;92447;-71
2022/04/28 11:01:56;;;;;;;11.45;4.30;;;17.00;65.20;;;;;;4991506;27;92494;-71
2022/04/28 11:04:25;;;;;;;8.80;4.03;;;17.20;65.30;;;;;;4993896;28;95961;-71
2022/04/28 11:06:56;;;;;;;9.35;4.07;;;17.40;64.30;;;;;;4993997;28;93014;-71
2022/04/28 11:09:44;;;;;;;8.75;4.65;;;17.50;64.60;;;;;;4995788;28;92483;-71
2022/04/28 11:12:18;;;;;;;12.25;4.13;;;17.50;62.90;;;;;;4995882;28;91643;-71
2022/04/28 11:14:52;;;;;;;8.57;4.18;;;17.30;64.00;;;;;;4994044;28;95850;-71
2022/04/28 11:17:23;;;;;;;9.00;4.45;;;17.30;64.40;;;;;;4993856;28;95950;-71
2022/04/28 11:19:50;;;;;;;8.88;4.28;;;17.10;64.60;;;;;;4993559;28;94841;-71
2022/04/28 11:22:17;;;;;;;5.78;3.50;;;17.10;64.60;;;;;;4994137;28;92472;-71
2022/04/28 11:24:45;;;;;;;8.45;4.07;;;16.90;65.20;;;;;;4995198;28;95849;-71
2022/04/28 11:27:32;;;;;;;8.90;4.47;;;16.90;64.90;;;;;;4996134;28;92443;-71
2022/04/28 11:30:12;;;;;;;11.10;4.85;;;17.00;64.50;;;;;;4997367;28;92556;-71
2022/04/28 11:32:51;;;;;;;9.07;4.10;;;17.00;64.40;;;;;;5031331;28;92857;-71
2022/04/28 11:35:20;;;;;;;7.35;4.68;;;17.10;64.90;;;;;;4998830;28;93273;-71
2022/04/28 11:37:52;;;;;;;9.95;5.50;;;17.10;65.30;;;;;;5014328;28;96125;-71
2022/04/28 11:40:20;;;;;;;9.13;4.17;;;17.30;65.10;;;;;;4997978;28;92612;-71
2022/04/28 11:43:02;;;;;;;8.88;4.18;;;17.40;65.00;;;;;;5030639;28;92505;-71
2022/04/28 11:45:31;;;;;;;9.40;5.57;;;17.30;63.70;;;;;;4997472;28;95692;-71
2022/04/28 11:48:00;;;;;;;13.27;4.72;;;17.30;64.30;;;;;;4998269;28;95452;-71
2022/04/28 11:50:30;;;;;;;10.77;5.38;;;17.30;63.80;;;;;;5030124;27;93067;-71
2022/04/28 11:52:59;;;;;;;9.32;4.50;;;17.20;64.70;;;;;;4998169;28;92516;-71
2022/04/28 11:55:29;;;;;;;7.53;3.85;;;17.20;64.70;;;;;;5030523;28;93250;-71
2022/04/28 11:57:56;;;;;;;8.48;4.18;;;17.30;65.00;;;;;;5029135;28;93052;-71
2022/04/28 12:00:27;;;;;;;12.07;4.32;;;17.30;64.20;;;;;;4998776;28;92765;-71
2022/04/28 12:02:55;;;;;;;7.35;3.58;;;17.30;64.00;;;;;;4997511;28;91768;-71
2022/04/28 12:05:25;;;;;;;8.85;3.67;;;17.20;64.30;;;;;;4998316;28;93307;-71
2022/04/28 12:07:53;;;;;;;7.95;3.33;;;17.20;64.50;;;;;;5012935;28;95444;-71
2022/04/28 12:15:58;;;;;;;13.48;5.57;;;17.20;64.70;;;;;;4998001;28;93053;-71
2022/04/28 12:21:21;;;;;;;8.80;4.05;;;17.30;64.90;;;;;;4997755;28;93057;-71
2022/04/28 12:23:51;;;;;;;10.20;3.60;;;17.30;64.20;;;;;;4998254;28;92359;-71
2022/04/28 12:26:21;;;;;;;12.10;3.67;;;17.20;64.80;;;;;;4996235;28;94954;-71
2022/04/28 12:28:48;;;;;;;8.02;4.90;;;17.30;65.00;;;;;;5013504;28;95464;-71
2022/04/28 12:31:26;;;;;;;9.40;4.18;;;17.30;64.90;;;;;;4997124;28;105925;-71
2022/04/28 12:34:19;;;;;;;9.32;4.07;;;17.40;64.20;;;;;;4997716;28;92455;-71
2022/04/28 12:36:57;;;;;;;11.82;4.50;;;17.40;63.80;;;;;;4995076;28;98495;-71
2022/04/28 12:39:29;;;;;;;10.20;4.88;;;17.40;63.60;;;;;;4997187;28;95410;-71
2022/04/28 12:41:57;;;;;;;9.77;4.38;;;17.40;64.10;;;;;;5013376;28;92536;-71
2022/04/28 12:44:24;;;;;;;9.38;4.30;;;17.40;63.80;;;;;;4997441;28;92454;-71
2022/04/28 12:46:55;;;;;;;10.27;3.88;;;17.20;63.60;;;;;;4997580;28;93300;-71
2022/04/28 12:49:23;;;;;;;8.27;3.80;;;17.20;64.20;;;;;;4997357;28;92896;-71
2022/04/28 12:51:56;;;;;;;7.93;3.72;;;17.20;63.90;;;;;;5012676;28;92934;-71
2022/04/28 12:54:32;;;;;;;9.50;3.20;;;17.30;64.40;;;;;;5009190;28;91685;-71
2022/04/28 12:57:02;;;;;;;8.73;4.15;;;17.40;64.40;;;;;;4996480;28;93095;-71
2022/04/28 12:59:36;;;;;;;11.18;4.55;;;17.50;63.70;;;;;;5012725;28;92532;-71
2022/04/28 13:02:05;;;;;;;9.13;4.63;;;17.60;63.30;;;;;;4996358;28;94892;-71
2022/04/28 13:04:36;;;;;;;7.70;3.80;;;17.80;63.40;;;;;;4996332;28;92408;-71
2022/04/28 13:07:05;;;;;;;9.10;3.85;;;18.00;62.80;;;;;;4997380;28;95443;-71
2022/04/28 13:09:32;;;;;;;7.18;4.30;;;18.10;62.40;;;;;;5029080;28;93043;-71
2022/04/28 13:11:59;;;;;;;7.63;4.30;;;18.20;62.30;;;;;;4997391;28;92415;-71
2022/04/28 13:14:27;;;;;;;8.07;3.40;;;18.00;62.20;;;;;;4996120;28;92467;-71
2022/04/28 13:16:54;;;;;;;12.52;4.93;;;18.10;62.30;;;;;;4995898;28;93328;-71
2022/04/28 13:19:22;;;;;;;8.27;4.30;;;17.90;62.60;;;;;;5012105;28;95528;-71
2022/04/28 13:21:50;;;;;;;7.82;4.82;;;17.70;62.60;;;;;;4996313;28;92511;-71
2022/04/28 13:24:17;;;;;;;10.63;3.95;;;17.60;62.90;;;;;;4979055;28;92496;-71
2022/04/28 13:26:45;;;;;;;9.60;3.65;;;17.60;63.20;;;;;;4995467;28;108317;-71
2022/04/28 13:29:12;;;;;;;7.50;4.72;;;17.70;63.10;;;;;;4995608;28;95632;-71
2022/04/28 13:31:40;;;;;;;8.85;4.55;;;17.70;63.20;;;;;;5012507;28;92627;-71
2022/04/28 13:34:09;;;;;;;6.80;3.67;;;17.70;62.10;;;;;;4995376;28;92388;-71
2022/04/28 13:36:36;;;;;;;9.38;4.78;;;17.80;62.60;;;;;;4996927;28;93313;-71
2022/04/28 13:39:03;;;;;;;6.65;3.38;;;17.80;62.30;;;;;;4996959;28;93175;-71
2022/04/28 13:41:31;;;;;;;11.15;4.07;;;17.60;62.40;;;;;;4996914;28;92410;-71
2022/04/28 13:43:58;;;;;;;9.93;3.72;;;17.40;63.40;;;;;;4979415;28;91733;-71
2022/04/28 13:46:26;;;;;;;9.93;4.07;;;17.50;63.30;;;;;;4995225;28;96006;-71
2022/04/28 13:48:52;;;;;;;8.82;4.68;;;17.50;63.20;;;;;;4995073;28;95530;-71
2022/04/28 13:51:19;;;;;;;6.78;4.10;;;17.40;63.10;;;;;;4994851;28;95228;-71
2022/04/28 13:53:46;;;;;;;7.85;3.85;;;17.60;62.70;;;;;;4995397;28;92482;-71
2022/04/28 13:56:13;;;;;;;8.65;3.28;;;17.70;62.90;;;;;;4996549;28;93311;-71
2022/04/28 13:58:42;;;;;;;7.32;4.10;;;17.80;63.10;;;;;;5011897;28;93316;-71